sensor_id;sensor_type;location;lat;lon;timestamp;P1;durP1;ratioP1;P2;durP2;ratioP2
37451;SDS011;23314;51.114;6.900;2022-12-11T00:01:16;96.90;;;37.30;;
37451;SDS011;23314;51.114;6.900;2022-12-11T00:03:43;95.77;;;37.43;;
37451;SDS011;23314;51.114;6.900;2022-12-11T00:06:09;94.00;;;36.13;;
37451;SDS011;23314;51.114;6.900;2022-12-11T00:08:36;102.07;;;37.57;;
37451;SDS011;23314;51.114;6.900;2022-12-11T00:11:01;85.83;;;36.63;;
37451;SDS011;23314;51.114;6.900;2022-12-11T00:13:27;87.33;;;37.90;;
37451;SDS011;23314;51.114;6.900;2022-12-11T00:15:53;91.03;;;36.87;;
37451;SDS011;23314;51.114;6.900;2022-12-11T00:18:18;96.57;;;38.13;;
37451;SDS011;23314;51.114;6.900;2022-12-11T00:20:43;89.23;;;35.83;;
37451;SDS011;23314;51.114;6.900;2022-12-11T00:23:09;95.63;;;38.07;;
37451;SDS011;23314;51.114;6.900;2022-12-11T00:25:39;95.13;;;38.03;;
37451;SDS011;23314;51.114;6.900;2022-12-11T00:28:11;98.00;;;40.53;;
37451;SDS011;23314;51.114;6.900;2022-12-11T00:30:40;95.23;;;39.27;;
37451;SDS011;23314;51.114;6.900;2022-12-11T00:33:06;98.87;;;41.57;;
37451;SDS011;23314;51.114;6.900;2022-12-11T00:35:32;88.17;;;39.40;;
37451;SDS011;23314;51.114;6.900;2022-12-11T00:37:57;96.67;;;38.37;;
37451;SDS011;23314;51.114;6.900;2022-12-11T00:40:23;93.40;;;38.07;;
37451;SDS011;23314;51.114;6.900;2022-12-11T00:42:48;94.77;;;38.17;;
37451;SDS011;23314;51.114;6.900;2022-12-11T00:45:13;98.00;;;39.77;;
37451;SDS011;23314;51.114;6.900;2022-12-11T00:47:38;91.20;;;38.33;;
37451;SDS011;23314;51.114;6.900;2022-12-11T00:50:04;99.43;;;39.93;;
37451;SDS011;23314;51.114;6.900;2022-12-11T00:52:30;103.93;;;41.13;;
37451;SDS011;23314;51.114;6.900;2022-12-11T00:54:55;100.63;;;39.63;;
37451;SDS011;23314;51.114;6.900;2022-12-11T00:57:20;105.37;;;40.17;;
37451;SDS011;23314;51.114;6.900;2022-12-11T00:59:45;100.17;;;40.93;;
37451;SDS011;23314;51.114;6.900;2022-12-11T01:02:11;97.90;;;39.73;;
37451;SDS011;23314;51.114;6.900;2022-12-11T01:04:36;101.43;;;39.33;;
37451;SDS011;23314;51.114;6.900;2022-12-11T01:07:02;103.97;;;40.50;;
37451;SDS011;23314;51.114;6.900;2022-12-11T01:09:27;104.17;;;42.03;;
37451;SDS011;23314;51.114;6.900;2022-12-11T01:12:11;95.37;;;38.87;;
37451;SDS011;23314;51.114;6.900;2022-12-11T01:14:37;103.80;;;40.90;;
37451;SDS011;23314;51.114;6.900;2022-12-11T01:17:02;101.13;;;39.77;;
37451;SDS011;23314;51.114;6.900;2022-12-11T01:19:27;105.00;;;39.73;;
37451;SDS011;23314;51.114;6.900;2022-12-11T01:21:52;100.93;;;40.33;;
37451;SDS011;23314;51.114;6.900;2022-12-11T01:24:18;106.47;;;40.93;;
37451;SDS011;23314;51.114;6.900;2022-12-11T01:26:43;110.67;;;41.73;;
37451;SDS011;23314;51.114;6.900;2022-12-11T01:29:09;103.27;;;40.73;;
37451;SDS011;23314;51.114;6.900;2022-12-11T01:31:34;98.80;;;39.53;;
37451;SDS011;23314;51.114;6.900;2022-12-11T01:33:59;99.70;;;39.93;;
37451;SDS011;23314;51.114;6.900;2022-12-11T01:36:24;101.77;;;40.37;;
37451;SDS011;23314;51.114;6.900;2022-12-11T01:38:50;109.57;;;42.03;;
37451;SDS011;23314;51.114;6.900;2022-12-11T01:41:17;114.60;;;43.30;;
37451;SDS011;23314;51.114;6.900;2022-12-11T01:43:59;107.03;;;40.57;;
37451;SDS011;23314;51.114;6.900;2022-12-11T01:46:27;109.17;;;40.37;;
37451;SDS011;23314;51.114;6.900;2022-12-11T01:48:54;111.33;;;41.00;;
37451;SDS011;23314;51.114;6.900;2022-12-11T01:51:20;121.60;;;43.17;;
37451;SDS011;23314;51.114;6.900;2022-12-11T01:53:47;109.97;;;40.93;;
37451;SDS011;23314;51.114;6.900;2022-12-11T01:56:17;114.23;;;42.33;;
37451;SDS011;23314;51.114;6.900;2022-12-11T01:58:45;110.60;;;42.77;;
37451;SDS011;23314;51.114;6.900;2022-12-11T02:01:49;113.40;;;42.43;;
37451;SDS011;23314;51.114;6.900;2022-12-11T02:04:09;123.73;;;43.37;;
37451;SDS011;23314;51.114;6.900;2022-12-11T02:09:02;117.53;;;43.57;;
37451;SDS011;23314;51.114;6.900;2022-12-11T02:11:37;119.43;;;41.93;;
37451;SDS011;23314;51.114;6.900;2022-12-11T02:14:26;127.03;;;43.67;;
37451;SDS011;23314;51.114;6.900;2022-12-11T02:16:59;113.17;;;42.37;;
37451;SDS011;23314;51.114;6.900;2022-12-11T02:22:25;71.57;;;32.47;;
37451;SDS011;23314;51.114;6.900;2022-12-11T02:25:09;74.63;;;33.03;;
37451;SDS011;23314;51.114;6.900;2022-12-11T02:27:51;70.13;;;31.97;;
37451;SDS011;23314;51.114;6.900;2022-12-11T02:30:23;72.83;;;29.17;;
37451;SDS011;23314;51.114;6.900;2022-12-11T02:32:55;75.70;;;33.03;;
37451;SDS011;23314;51.114;6.900;2022-12-11T02:35:24;75.40;;;32.03;;
37451;SDS011;23314;51.114;6.900;2022-12-11T02:38:00;72.73;;;31.50;;
37451;SDS011;23314;51.114;6.900;2022-12-11T02:40:29;65.63;;;30.23;;
37451;SDS011;23314;51.114;6.900;2022-12-11T02:42:56;63.37;;;28.53;;
37451;SDS011;23314;51.114;6.900;2022-12-11T02:45:25;62.67;;;28.80;;
37451;SDS011;23314;51.114;6.900;2022-12-11T02:47:52;61.13;;;28.73;;
37451;SDS011;23314;51.114;6.900;2022-12-11T02:50:20;60.17;;;28.23;;
37451;SDS011;23314;51.114;6.900;2022-12-11T02:52:47;53.03;;;26.03;;
37451;SDS011;23314;51.114;6.900;2022-12-11T02:55:15;52.30;;;25.63;;
37451;SDS011;23314;51.114;6.900;2022-12-11T02:57:43;53.40;;;25.70;;
37451;SDS011;23314;51.114;6.900;2022-12-11T03:00:12;53.13;;;25.90;;
37451;SDS011;23314;51.114;6.900;2022-12-11T03:02:38;53.97;;;27.93;;
37451;SDS011;23314;51.114;6.900;2022-12-11T03:05:04;55.70;;;27.30;;
37451;SDS011;23314;51.114;6.900;2022-12-11T03:07:34;47.07;;;24.03;;
37451;SDS011;23314;51.114;6.900;2022-12-11T03:10:02;45.47;;;23.23;;
37451;SDS011;23314;51.114;6.900;2022-12-11T03:12:31;44.07;;;23.30;;
37451;SDS011;23314;51.114;6.900;2022-12-11T03:15:00;46.03;;;23.07;;
37451;SDS011;23314;51.114;6.900;2022-12-11T03:25:48;43.63;;;22.87;;
37451;SDS011;23314;51.114;6.900;2022-12-11T03:28:19;46.30;;;23.67;;
37451;SDS011;23314;51.114;6.900;2022-12-11T03:30:50;50.10;;;24.83;;
37451;SDS011;23314;51.114;6.900;2022-12-11T03:33:20;45.67;;;23.13;;
37451;SDS011;23314;51.114;6.900;2022-12-11T03:35:53;42.23;;;22.70;;
37451;SDS011;23314;51.114;6.900;2022-12-11T03:38:26;39.23;;;21.03;;
37451;SDS011;23314;51.114;6.900;2022-12-11T03:40:56;39.90;;;22.10;;
37451;SDS011;23314;51.114;6.900;2022-12-11T03:43:25;40.03;;;21.53;;
37451;SDS011;23314;51.114;6.900;2022-12-11T03:45:53;40.50;;;20.67;;
37451;SDS011;23314;51.114;6.900;2022-12-11T03:48:18;41.37;;;21.90;;
37451;SDS011;23314;51.114;6.900;2022-12-11T03:50:45;42.80;;;21.83;;
37451;SDS011;23314;51.114;6.900;2022-12-11T03:53:12;46.77;;;23.33;;
37451;SDS011;23314;51.114;6.900;2022-12-11T03:55:38;49.73;;;23.97;;
37451;SDS011;23314;51.114;6.900;2022-12-11T03:58:05;48.17;;;24.27;;
37451;SDS011;23314;51.114;6.900;2022-12-11T04:00:30;48.53;;;25.80;;
37451;SDS011;23314;51.114;6.900;2022-12-11T04:02:56;47.53;;;23.97;;
37451;SDS011;23314;51.114;6.900;2022-12-11T04:05:37;48.70;;;24.60;;
37451;SDS011;23314;51.114;6.900;2022-12-11T04:08:03;52.73;;;26.20;;
37451;SDS011;23314;51.114;6.900;2022-12-11T04:10:28;54.40;;;28.10;;
37451;SDS011;23314;51.114;6.900;2022-12-11T04:12:53;57.40;;;26.80;;
37451;SDS011;23314;51.114;6.900;2022-12-11T04:15:19;54.67;;;27.43;;
37451;SDS011;23314;51.114;6.900;2022-12-11T04:17:44;51.53;;;27.20;;
37451;SDS011;23314;51.114;6.900;2022-12-11T04:20:28;56.00;;;27.20;;
37451;SDS011;23314;51.114;6.900;2022-12-11T04:23:13;55.87;;;27.43;;
37451;SDS011;23314;51.114;6.900;2022-12-11T04:26:06;55.83;;;27.57;;
37451;SDS011;23314;51.114;6.900;2022-12-11T04:28:33;52.40;;;26.60;;
37451;SDS011;23314;51.114;6.900;2022-12-11T04:30:59;57.07;;;29.10;;
37451;SDS011;23314;51.114;6.900;2022-12-11T04:33:24;48.80;;;25.67;;
37451;SDS011;23314;51.114;6.900;2022-12-11T04:35:50;53.37;;;26.37;;
37451;SDS011;23314;51.114;6.900;2022-12-11T04:38:15;56.00;;;27.10;;
37451;SDS011;23314;51.114;6.900;2022-12-11T04:40:40;53.27;;;25.47;;
37451;SDS011;23314;51.114;6.900;2022-12-11T04:43:06;52.80;;;26.87;;
37451;SDS011;23314;51.114;6.900;2022-12-11T04:45:31;55.77;;;26.17;;
37451;SDS011;23314;51.114;6.900;2022-12-11T04:47:56;54.17;;;25.83;;
37451;SDS011;23314;51.114;6.900;2022-12-11T04:50:22;54.93;;;25.80;;
37451;SDS011;23314;51.114;6.900;2022-12-11T04:52:47;49.97;;;24.57;;
37451;SDS011;23314;51.114;6.900;2022-12-11T04:55:13;53.50;;;25.50;;
37451;SDS011;23314;51.114;6.900;2022-12-11T04:57:38;48.27;;;24.37;;
37451;SDS011;23314;51.114;6.900;2022-12-11T05:00:05;51.57;;;25.83;;
37451;SDS011;23314;51.114;6.900;2022-12-11T05:02:35;53.53;;;24.67;;
37451;SDS011;23314;51.114;6.900;2022-12-11T05:05:02;51.77;;;24.43;;
37451;SDS011;23314;51.114;6.900;2022-12-11T05:07:33;50.07;;;25.20;;
37451;SDS011;23314;51.114;6.900;2022-12-11T05:09:59;52.27;;;24.70;;
37451;SDS011;23314;51.114;6.900;2022-12-11T05:12:24;51.87;;;24.70;;
37451;SDS011;23314;51.114;6.900;2022-12-11T05:14:53;50.53;;;25.40;;
37451;SDS011;23314;51.114;6.900;2022-12-11T05:17:19;50.17;;;25.23;;
37451;SDS011;23314;51.114;6.900;2022-12-11T05:19:48;49.87;;;24.63;;
37451;SDS011;23314;51.114;6.900;2022-12-11T05:22:15;47.87;;;25.07;;
37451;SDS011;23314;51.114;6.900;2022-12-11T05:24:41;49.57;;;23.57;;
37451;SDS011;23314;51.114;6.900;2022-12-11T05:27:06;50.50;;;25.33;;
37451;SDS011;23314;51.114;6.900;2022-12-11T05:29:31;47.33;;;24.43;;
37451;SDS011;23314;51.114;6.900;2022-12-11T05:31:57;49.37;;;25.20;;
37451;SDS011;23314;51.114;6.900;2022-12-11T05:34:22;47.47;;;25.83;;
37451;SDS011;23314;51.114;6.900;2022-12-11T05:36:48;46.07;;;23.47;;
37451;SDS011;23314;51.114;6.900;2022-12-11T05:39:13;48.03;;;24.70;;
37451;SDS011;23314;51.114;6.900;2022-12-11T05:41:38;46.50;;;23.23;;
37451;SDS011;23314;51.114;6.900;2022-12-11T05:44:04;48.20;;;23.47;;
37451;SDS011;23314;51.114;6.900;2022-12-11T05:46:29;46.73;;;24.00;;
37451;SDS011;23314;51.114;6.900;2022-12-11T05:48:56;45.43;;;23.37;;
37451;SDS011;23314;51.114;6.900;2022-12-11T05:51:24;42.90;;;23.63;;
37451;SDS011;23314;51.114;6.900;2022-12-11T05:53:51;45.43;;;24.47;;
37451;SDS011;23314;51.114;6.900;2022-12-11T05:56:18;45.57;;;22.80;;
37451;SDS011;23314;51.114;6.900;2022-12-11T05:58:45;42.03;;;22.97;;
37451;SDS011;23314;51.114;6.900;2022-12-11T06:01:30;45.30;;;23.57;;
37451;SDS011;23314;51.114;6.900;2022-12-11T06:03:57;43.60;;;23.07;;
37451;SDS011;23314;51.114;6.900;2022-12-11T06:06:23;45.33;;;23.63;;
37451;SDS011;23314;51.114;6.900;2022-12-11T06:08:50;43.33;;;23.67;;
37451;SDS011;23314;51.114;6.900;2022-12-11T06:11:16;42.27;;;23.73;;
37451;SDS011;23314;51.114;6.900;2022-12-11T06:13:42;43.33;;;22.90;;
37451;SDS011;23314;51.114;6.900;2022-12-11T06:16:07;46.13;;;24.57;;
37451;SDS011;23314;51.114;6.900;2022-12-11T06:18:34;43.20;;;23.67;;
37451;SDS011;23314;51.114;6.900;2022-12-11T06:21:17;44.73;;;25.93;;
37451;SDS011;23314;51.114;6.900;2022-12-11T06:23:45;60.57;;;33.50;;
37451;SDS011;23314;51.114;6.900;2022-12-11T06:26:11;49.53;;;29.00;;
37451;SDS011;23314;51.114;6.900;2022-12-11T06:28:37;50.03;;;27.63;;
37451;SDS011;23314;51.114;6.900;2022-12-11T06:31:03;45.37;;;25.40;;
37451;SDS011;23314;51.114;6.900;2022-12-11T06:33:29;42.17;;;22.87;;
37451;SDS011;23314;51.114;6.900;2022-12-11T06:35:54;40.10;;;23.43;;
37451;SDS011;23314;51.114;6.900;2022-12-11T06:38:20;38.87;;;21.63;;
37451;SDS011;23314;51.114;6.900;2022-12-11T06:40:46;42.53;;;24.33;;
37451;SDS011;23314;51.114;6.900;2022-12-11T06:43:18;40.57;;;22.67;;
37451;SDS011;23314;51.114;6.900;2022-12-11T06:45:44;37.67;;;22.77;;
37451;SDS011;23314;51.114;6.900;2022-12-11T06:48:09;40.70;;;23.00;;
37451;SDS011;23314;51.114;6.900;2022-12-11T06:50:34;39.67;;;22.13;;
37451;SDS011;23314;51.114;6.900;2022-12-11T06:53:02;39.73;;;22.13;;
37451;SDS011;23314;51.114;6.900;2022-12-11T06:55:27;40.40;;;22.90;;
37451;SDS011;23314;51.114;6.900;2022-12-11T06:57:52;37.70;;;21.50;;
37451;SDS011;23314;51.114;6.900;2022-12-11T07:00:17;36.90;;;21.30;;
37451;SDS011;23314;51.114;6.900;2022-12-11T07:02:43;38.00;;;21.90;;
37451;SDS011;23314;51.114;6.900;2022-12-11T07:05:08;37.43;;;21.07;;
37451;SDS011;23314;51.114;6.900;2022-12-11T07:07:33;40.27;;;22.73;;
37451;SDS011;23314;51.114;6.900;2022-12-11T07:09:59;43.90;;;22.77;;
37451;SDS011;23314;51.114;6.900;2022-12-11T07:12:24;39.73;;;21.80;;
37451;SDS011;23314;51.114;6.900;2022-12-11T07:14:50;43.00;;;23.90;;
37451;SDS011;23314;51.114;6.900;2022-12-11T07:17:15;43.63;;;24.87;;
37451;SDS011;23314;51.114;6.900;2022-12-11T07:19:40;43.33;;;24.63;;
37451;SDS011;23314;51.114;6.900;2022-12-11T07:22:06;45.77;;;25.27;;
37451;SDS011;23314;51.114;6.900;2022-12-11T07:24:31;42.83;;;22.67;;
37451;SDS011;23314;51.114;6.900;2022-12-11T07:26:56;40.33;;;22.77;;
37451;SDS011;23314;51.114;6.900;2022-12-11T07:29:22;44.10;;;23.27;;
37451;SDS011;23314;51.114;6.900;2022-12-11T07:31:47;36.90;;;21.13;;
37451;SDS011;23314;51.114;6.900;2022-12-11T07:34:12;41.43;;;21.67;;
37451;SDS011;23314;51.114;6.900;2022-12-11T07:36:38;45.50;;;23.10;;
37451;SDS011;23314;51.114;6.900;2022-12-11T07:39:04;45.33;;;22.57;;
37451;SDS011;23314;51.114;6.900;2022-12-11T07:41:29;41.13;;;22.57;;
37451;SDS011;23314;51.114;6.900;2022-12-11T07:43:55;42.27;;;23.73;;
37451;SDS011;23314;51.114;6.900;2022-12-11T07:46:25;42.73;;;22.50;;
37451;SDS011;23314;51.114;6.900;2022-12-11T07:48:52;42.27;;;23.27;;
37451;SDS011;23314;51.114;6.900;2022-12-11T07:51:19;45.03;;;23.20;;
37451;SDS011;23314;51.114;6.900;2022-12-11T07:53:47;41.37;;;23.00;;
37451;SDS011;23314;51.114;6.900;2022-12-11T07:56:14;41.13;;;21.33;;
37451;SDS011;23314;51.114;6.900;2022-12-11T07:58:40;38.63;;;20.83;;
37451;SDS011;23314;51.114;6.900;2022-12-11T08:01:13;38.80;;;22.13;;
37451;SDS011;23314;51.114;6.900;2022-12-11T08:03:43;46.10;;;22.20;;
37451;SDS011;23314;51.114;6.900;2022-12-11T08:06:09;40.80;;;21.53;;
37451;SDS011;23314;51.114;6.900;2022-12-11T08:08:34;42.10;;;23.07;;
37451;SDS011;23314;51.114;6.900;2022-12-11T08:11:03;44.70;;;21.77;;
37451;SDS011;23314;51.114;6.900;2022-12-11T08:13:30;42.80;;;22.70;;
37451;SDS011;23314;51.114;6.900;2022-12-11T08:15:55;44.23;;;22.73;;
37451;SDS011;23314;51.114;6.900;2022-12-11T08:18:21;41.67;;;22.17;;
37451;SDS011;23314;51.114;6.900;2022-12-11T08:20:46;43.87;;;22.93;;
37451;SDS011;23314;51.114;6.900;2022-12-11T08:23:11;38.97;;;22.17;;
37451;SDS011;23314;51.114;6.900;2022-12-11T08:25:37;39.37;;;22.47;;
37451;SDS011;23314;51.114;6.900;2022-12-11T08:28:02;42.13;;;21.63;;
37451;SDS011;23314;51.114;6.900;2022-12-11T08:30:27;41.33;;;23.10;;
37451;SDS011;23314;51.114;6.900;2022-12-11T08:32:54;37.10;;;22.53;;
37451;SDS011;23314;51.114;6.900;2022-12-11T08:35:19;43.47;;;24.07;;
37451;SDS011;23314;51.114;6.900;2022-12-11T08:37:45;39.43;;;22.90;;
37451;SDS011;23314;51.114;6.900;2022-12-11T08:40:10;34.67;;;20.80;;
37451;SDS011;23314;51.114;6.900;2022-12-11T08:42:36;41.07;;;23.33;;
37451;SDS011;23314;51.114;6.900;2022-12-11T08:45:02;36.40;;;21.97;;
37451;SDS011;23314;51.114;6.900;2022-12-11T08:47:28;38.37;;;22.07;;
37451;SDS011;23314;51.114;6.900;2022-12-11T08:49:53;40.37;;;22.60;;
37451;SDS011;23314;51.114;6.900;2022-12-11T08:52:19;39.70;;;22.23;;
37451;SDS011;23314;51.114;6.900;2022-12-11T08:54:44;37.50;;;21.77;;
37451;SDS011;23314;51.114;6.900;2022-12-11T08:57:09;41.37;;;22.47;;
37451;SDS011;23314;51.114;6.900;2022-12-11T08:59:35;39.13;;;22.80;;
37451;SDS011;23314;51.114;6.900;2022-12-11T09:02:00;38.53;;;22.23;;
37451;SDS011;23314;51.114;6.900;2022-12-11T09:04:25;38.27;;;21.13;;
37451;SDS011;23314;51.114;6.900;2022-12-11T09:06:51;35.87;;;21.63;;
37451;SDS011;23314;51.114;6.900;2022-12-11T09:09:16;37.93;;;22.17;;
37451;SDS011;23314;51.114;6.900;2022-12-11T09:11:41;36.83;;;21.13;;
37451;SDS011;23314;51.114;6.900;2022-12-11T09:14:07;36.60;;;21.10;;
37451;SDS011;23314;51.114;6.900;2022-12-11T09:16:32;37.70;;;20.90;;
37451;SDS011;23314;51.114;6.900;2022-12-11T09:19:01;36.43;;;20.83;;
37451;SDS011;23314;51.114;6.900;2022-12-11T09:21:27;36.97;;;22.43;;
37451;SDS011;23314;51.114;6.900;2022-12-11T09:23:55;37.30;;;22.53;;
37451;SDS011;23314;51.114;6.900;2022-12-11T09:26:22;33.47;;;21.20;;
37451;SDS011;23314;51.114;6.900;2022-12-11T09:28:48;37.97;;;22.33;;
37451;SDS011;23314;51.114;6.900;2022-12-11T09:31:21;35.80;;;21.80;;
37451;SDS011;23314;51.114;6.900;2022-12-11T09:33:48;36.97;;;21.23;;
37451;SDS011;23314;51.114;6.900;2022-12-11T09:36:14;34.67;;;21.33;;
37451;SDS011;23314;51.114;6.900;2022-12-11T09:38:39;35.13;;;20.27;;
37451;SDS011;23314;51.114;6.900;2022-12-11T09:41:23;36.37;;;21.93;;
37451;SDS011;23314;51.114;6.900;2022-12-11T09:44:06;34.70;;;20.83;;
37451;SDS011;23314;51.114;6.900;2022-12-11T09:46:54;36.50;;;20.83;;
37451;SDS011;23314;51.114;6.900;2022-12-11T09:49:26;34.70;;;21.20;;
37451;SDS011;23314;51.114;6.900;2022-12-11T09:52:14;37.33;;;20.90;;
37451;SDS011;23314;51.114;6.900;2022-12-11T09:54:47;39.10;;;22.73;;
37451;SDS011;23314;51.114;6.900;2022-12-11T10:10:22;38.53;;;21.37;;
37451;SDS011;23314;51.114;6.900;2022-12-11T10:13:19;39.30;;;23.00;;
37451;SDS011;23314;51.114;6.900;2022-12-11T10:15:59;39.07;;;21.73;;
37451;SDS011;23314;51.114;6.900;2022-12-11T10:18:42;37.90;;;22.83;;
37451;SDS011;23314;51.114;6.900;2022-12-11T10:21:08;38.87;;;22.10;;
37451;SDS011;23314;51.114;6.900;2022-12-11T10:23:41;38.50;;;22.67;;
37451;SDS011;23314;51.114;6.900;2022-12-11T10:26:18;36.33;;;21.37;;
37451;SDS011;23314;51.114;6.900;2022-12-11T10:28:46;37.67;;;21.67;;
37451;SDS011;23314;51.114;6.900;2022-12-11T10:31:15;34.90;;;21.23;;
37451;SDS011;23314;51.114;6.900;2022-12-11T10:33:48;35.40;;;21.20;;
37451;SDS011;23314;51.114;6.900;2022-12-11T10:36:15;36.47;;;21.37;;
37451;SDS011;23314;51.114;6.900;2022-12-11T10:38:44;38.50;;;21.70;;
37451;SDS011;23314;51.114;6.900;2022-12-11T10:41:16;38.80;;;22.10;;
37451;SDS011;23314;51.114;6.900;2022-12-11T10:43:46;39.47;;;22.37;;
37451;SDS011;23314;51.114;6.900;2022-12-11T10:46:17;38.27;;;21.50;;
37451;SDS011;23314;51.114;6.900;2022-12-11T10:48:48;36.93;;;21.90;;
37451;SDS011;23314;51.114;6.900;2022-12-11T10:51:14;40.27;;;22.87;;
37451;SDS011;23314;51.114;6.900;2022-12-11T10:53:40;37.80;;;22.30;;
37451;SDS011;23314;51.114;6.900;2022-12-11T10:56:07;38.77;;;23.00;;
37451;SDS011;23314;51.114;6.900;2022-12-11T10:58:33;40.50;;;22.40;;
37451;SDS011;23314;51.114;6.900;2022-12-11T11:01:06;37.73;;;22.43;;
37451;SDS011;23314;51.114;6.900;2022-12-11T11:03:35;37.20;;;23.13;;
37451;SDS011;23314;51.114;6.900;2022-12-11T11:08:43;38.13;;;23.27;;
37451;SDS011;23314;51.114;6.900;2022-12-11T11:14:16;38.87;;;23.20;;
37451;SDS011;23314;51.114;6.900;2022-12-11T11:16:46;40.53;;;23.77;;
37451;SDS011;23314;51.114;6.900;2022-12-11T11:19:16;35.90;;;22.10;;
37451;SDS011;23314;51.114;6.900;2022-12-11T11:21:52;37.63;;;23.13;;
37451;SDS011;23314;51.114;6.900;2022-12-11T11:24:25;36.97;;;22.57;;
37451;SDS011;23314;51.114;6.900;2022-12-11T11:26:53;37.27;;;23.50;;
37451;SDS011;23314;51.114;6.900;2022-12-11T11:29:27;40.90;;;23.50;;
37451;SDS011;23314;51.114;6.900;2022-12-11T11:31:56;37.80;;;22.50;;
37451;SDS011;23314;51.114;6.900;2022-12-11T11:34:27;39.60;;;21.87;;
37451;SDS011;23314;51.114;6.900;2022-12-11T11:36:55;37.80;;;22.63;;
37451;SDS011;23314;51.114;6.900;2022-12-11T11:39:25;35.70;;;22.93;;
37451;SDS011;23314;51.114;6.900;2022-12-11T11:44:45;37.93;;;23.20;;
37451;SDS011;23314;51.114;6.900;2022-12-11T11:47:18;39.83;;;23.97;;
37451;SDS011;23314;51.114;6.900;2022-12-11T11:49:52;39.57;;;22.63;;
37451;SDS011;23314;51.114;6.900;2022-12-11T11:52:45;45.13;;;23.13;;
37451;SDS011;23314;51.114;6.900;2022-12-11T11:55:17;54.87;;;25.57;;
37451;SDS011;23314;51.114;6.900;2022-12-11T11:58:02;42.73;;;23.73;;
37451;SDS011;23314;51.114;6.900;2022-12-11T12:00:33;39.80;;;24.10;;
37451;SDS011;23314;51.114;6.900;2022-12-11T12:03:08;43.30;;;24.97;;
37451;SDS011;23314;51.114;6.900;2022-12-11T12:05:44;46.13;;;26.07;;
37451;SDS011;23314;51.114;6.900;2022-12-11T12:08:13;44.10;;;25.37;;
37451;SDS011;23314;51.114;6.900;2022-12-11T12:16:09;41.47;;;24.57;;
37451;SDS011;23314;51.114;6.900;2022-12-11T12:21:40;39.80;;;23.90;;
37451;SDS011;23314;51.114;6.900;2022-12-11T12:26:51;48.07;;;26.67;;
37451;SDS011;23314;51.114;6.900;2022-12-11T12:34:50;44.87;;;25.63;;
37451;SDS011;23314;51.114;6.900;2022-12-11T12:45:34;49.97;;;29.53;;
37451;SDS011;23314;51.114;6.900;2022-12-11T12:48:12;56.67;;;29.23;;
37451;SDS011;23314;51.114;6.900;2022-12-11T12:50:40;57.33;;;30.63;;
37451;SDS011;23314;51.114;6.900;2022-12-11T12:53:11;56.23;;;30.73;;
37451;SDS011;23314;51.114;6.900;2022-12-11T12:55:41;60.30;;;31.93;;
37451;SDS011;23314;51.114;6.900;2022-12-11T12:58:21;60.07;;;31.97;;
37451;SDS011;23314;51.114;6.900;2022-12-11T13:00:49;56.97;;;31.60;;
37451;SDS011;23314;51.114;6.900;2022-12-11T13:03:19;60.07;;;32.27;;
37451;SDS011;23314;51.114;6.900;2022-12-11T13:05:56;62.50;;;34.43;;
37451;SDS011;23314;51.114;6.900;2022-12-11T13:08:27;58.93;;;32.17;;
37451;SDS011;23314;51.114;6.900;2022-12-11T13:11:02;56.27;;;30.53;;
37451;SDS011;23314;51.114;6.900;2022-12-11T13:16:22;59.47;;;33.03;;
37451;SDS011;23314;51.114;6.900;2022-12-11T13:18:49;66.97;;;35.83;;
37451;SDS011;23314;51.114;6.900;2022-12-11T13:21:35;62.97;;;30.80;;
37451;SDS011;23314;51.114;6.900;2022-12-11T13:26:36;56.47;;;29.87;;
37451;SDS011;23314;51.114;6.900;2022-12-11T13:29:02;55.13;;;29.70;;
37451;SDS011;23314;51.114;6.900;2022-12-11T13:31:35;52.10;;;29.67;;
37451;SDS011;23314;51.114;6.900;2022-12-11T13:34:06;57.37;;;30.37;;
37451;SDS011;23314;51.114;6.900;2022-12-11T13:36:38;57.33;;;30.83;;
37451;SDS011;23314;51.114;6.900;2022-12-11T13:39:14;62.80;;;30.93;;
37451;SDS011;23314;51.114;6.900;2022-12-11T13:41:43;58.67;;;30.20;;
37451;SDS011;23314;51.114;6.900;2022-12-11T13:44:23;60.03;;;29.23;;
37451;SDS011;23314;51.114;6.900;2022-12-11T13:46:51;58.47;;;30.27;;
37451;SDS011;23314;51.114;6.900;2022-12-11T13:49:21;56.53;;;28.23;;
37451;SDS011;23314;51.114;6.900;2022-12-11T13:51:55;56.03;;;29.07;;
37451;SDS011;23314;51.114;6.900;2022-12-11T13:54:22;59.20;;;28.97;;
37451;SDS011;23314;51.114;6.900;2022-12-11T13:56:56;62.60;;;30.23;;
37451;SDS011;23314;51.114;6.900;2022-12-11T14:02:17;62.63;;;29.27;;
37451;SDS011;23314;51.114;6.900;2022-12-11T14:04:54;56.70;;;29.07;;
37451;SDS011;23314;51.114;6.900;2022-12-11T14:07:32;62.23;;;30.73;;
37451;SDS011;23314;51.114;6.900;2022-12-11T14:10:02;59.90;;;28.90;;
37451;SDS011;23314;51.114;6.900;2022-12-11T14:12:31;55.60;;;28.27;;
37451;SDS011;23314;51.114;6.900;2022-12-11T14:14:57;59.40;;;30.17;;
37451;SDS011;23314;51.114;6.900;2022-12-11T14:17:34;57.93;;;28.73;;
37451;SDS011;23314;51.114;6.900;2022-12-11T14:20:01;67.50;;;31.53;;
37451;SDS011;23314;51.114;6.900;2022-12-11T14:22:31;58.80;;;28.93;;
37451;SDS011;23314;51.114;6.900;2022-12-11T14:24:57;58.40;;;29.17;;
37451;SDS011;23314;51.114;6.900;2022-12-11T14:27:24;57.63;;;29.83;;
37451;SDS011;23314;51.114;6.900;2022-12-11T14:29:50;68.67;;;31.57;;
37451;SDS011;23314;51.114;6.900;2022-12-11T14:32:17;57.50;;;29.60;;
37451;SDS011;23314;51.114;6.900;2022-12-11T14:34:56;60.33;;;28.30;;
37451;SDS011;23314;51.114;6.900;2022-12-11T14:37:23;60.60;;;29.90;;
37451;SDS011;23314;51.114;6.900;2022-12-11T14:39:58;61.13;;;30.53;;
37451;SDS011;23314;51.114;6.900;2022-12-11T14:42:31;63.33;;;31.63;;
37451;SDS011;23314;51.114;6.900;2022-12-11T14:45:06;60.93;;;29.40;;
37451;SDS011;23314;51.114;6.900;2022-12-11T14:47:43;59.97;;;29.97;;
37451;SDS011;23314;51.114;6.900;2022-12-11T14:53:03;59.50;;;30.20;;
37451;SDS011;23314;51.114;6.900;2022-12-11T14:55:33;55.30;;;31.10;;
37451;SDS011;23314;51.114;6.900;2022-12-11T14:58:03;59.57;;;32.17;;
37451;SDS011;23314;51.114;6.900;2022-12-11T15:00:36;61.73;;;30.33;;
37451;SDS011;23314;51.114;6.900;2022-12-11T15:03:06;60.57;;;31.37;;
37451;SDS011;23314;51.114;6.900;2022-12-11T15:05:50;59.80;;;31.60;;
37451;SDS011;23314;51.114;6.900;2022-12-11T15:08:18;59.23;;;32.00;;
37451;SDS011;23314;51.114;6.900;2022-12-11T15:13:35;56.83;;;29.87;;
37451;SDS011;23314;51.114;6.900;2022-12-11T15:16:03;57.13;;;31.27;;
37451;SDS011;23314;51.114;6.900;2022-12-11T15:18:37;59.33;;;32.47;;
37451;SDS011;23314;51.114;6.900;2022-12-11T15:21:06;60.17;;;32.07;;
37451;SDS011;23314;51.114;6.900;2022-12-11T15:26:08;60.50;;;32.47;;
37451;SDS011;23314;51.114;6.900;2022-12-11T15:28:35;61.87;;;33.97;;
37451;SDS011;23314;51.114;6.900;2022-12-11T15:31:04;60.20;;;32.33;;
37451;SDS011;23314;51.114;6.900;2022-12-11T15:33:31;61.33;;;31.07;;
37451;SDS011;23314;51.114;6.900;2022-12-11T15:36:03;60.83;;;32.40;;
37451;SDS011;23314;51.114;6.900;2022-12-11T15:38:34;59.90;;;30.07;;
37451;SDS011;23314;51.114;6.900;2022-12-11T15:41:03;55.20;;;30.30;;
37451;SDS011;23314;51.114;6.900;2022-12-11T15:43:35;57.80;;;30.63;;
37451;SDS011;23314;51.114;6.900;2022-12-11T15:46:02;61.23;;;32.10;;
37451;SDS011;23314;51.114;6.900;2022-12-11T15:48:29;59.33;;;30.40;;